sensor_id;sensor_type;location;lat;lon;timestamp;pressure;altitude;pressure_sealevel;temperature;humidity
28000;BME280;15328;50.860;10.562;2023-03-18T00:00:34;95945.25;;;10.84;44.16
28000;BME280;15328;50.860;10.562;2023-03-18T00:05:35;95954.38;;;10.77;43.33
28000;BME280;15328;50.860;10.562;2023-03-18T00:10:35;95943.50;;;10.78;42.66
28000;BME280;15328;50.860;10.562;2023-03-18T00:15:36;95942.00;;;10.71;43.12
28000;BME280;15328;50.860;10.562;2023-03-18T00:20:36;95943.72;;;10.65;43.26
28000;BME280;15328;50.860;10.562;2023-03-18T00:25:40;95955.63;;;10.51;43.17
28000;BME280;15328;50.860;10.562;2023-03-18T00:30:41;95955.25;;;10.47;43.42
28000;BME280;15328;50.860;10.562;2023-03-18T00:35:43;95958.28;;;10.51;42.60
28000;BME280;15328;50.860;10.562;2023-03-18T00:40:45;95968.56;;;10.59;43.22
28000;BME280;15328;50.860;10.562;2023-03-18T00:45:52;95967.06;;;10.51;43.42
28000;BME280;15328;50.860;10.562;2023-03-18T00:50:53;95965.00;;;10.65;42.73
28000;BME280;15328;50.860;10.562;2023-03-18T00:55:53;95965.81;;;10.66;42.71
28000;BME280;15328;50.860;10.562;2023-03-18T01:00:54;95968.22;;;10.67;42.84
28000;BME280;15328;50.860;10.562;2023-03-18T01:05:54;95963.03;;;10.61;43.35
28000;BME280;15328;50.860;10.562;2023-03-18T01:10:56;95959.94;;;10.75;42.81
28000;BME280;15328;50.860;10.562;2023-03-18T01:15:56;95955.06;;;10.84;42.86
28000;BME280;15328;50.860;10.562;2023-03-18T01:20:57;95961.91;;;10.80;42.82
28000;BME280;15328;50.860;10.562;2023-03-18T01:25:57;95959.34;;;10.85;42.51
28000;BME280;15328;50.860;10.562;2023-03-18T01:30:58;95970.13;;;10.90;43.05
28000;BME280;15328;50.860;10.562;2023-03-18T01:35:59;95975.91;;;10.87;42.70
28000;BME280;15328;50.860;10.562;2023-03-18T01:41:02;95983.31;;;10.97;43.08
28000;BME280;15328;50.860;10.562;2023-03-18T01:51:31;95965.03;;;11.00;42.64
28000;BME280;15328;50.860;10.562;2023-03-18T01:56:33;95953.81;;;10.98;42.89
28000;BME280;15328;50.860;10.562;2023-03-18T02:02:08;95955.19;;;10.89;43.66
28000;BME280;15328;50.860;10.562;2023-03-18T02:07:14;95962.72;;;11.04;44.57
28000;BME280;15328;50.860;10.562;2023-03-18T02:12:18;95967.56;;;10.95;45.56
28000;BME280;15328;50.860;10.562;2023-03-18T02:17:28;95970.13;;;11.13;45.13
28000;BME280;15328;50.860;10.562;2023-03-18T02:22:35;95961.66;;;11.17;44.70
28000;BME280;15328;50.860;10.562;2023-03-18T02:27:41;95961.78;;;11.10;44.07
28000;BME280;15328;50.860;10.562;2023-03-18T02:32:45;95966.66;;;11.13;44.54
28000;BME280;15328;50.860;10.562;2023-03-18T02:37:47;95981.59;;;11.02;44.69
28000;BME280;15328;50.860;10.562;2023-03-18T02:42:48;95975.91;;;10.87;45.34
28000;BME280;15328;50.860;10.562;2023-03-18T02:47:49;95981.91;;;10.82;44.70
28000;BME280;15328;50.860;10.562;2023-03-18T02:52:50;95996.16;;;11.00;44.52
28000;BME280;15328;50.860;10.562;2023-03-18T02:57:51;96000.00;;;11.04;44.13
28000;BME280;15328;50.860;10.562;2023-03-18T03:02:51;95992.69;;;10.99;45.22
28000;BME280;15328;50.860;10.562;2023-03-18T03:07:51;95992.69;;;10.99;45.41
28000;BME280;15328;50.860;10.562;2023-03-18T03:12:52;96015.94;;;10.92;44.88
28000;BME280;15328;50.860;10.562;2023-03-18T03:17:52;96017.53;;;10.81;44.85
28000;BME280;15328;50.860;10.562;2023-03-18T03:22:53;96026.09;;;10.72;44.92
28000;BME280;15328;50.860;10.562;2023-03-18T03:27:54;96025.19;;;10.78;44.67
28000;BME280;15328;50.860;10.562;2023-03-18T03:32:54;96038.88;;;10.63;45.10
28000;BME280;15328;50.860;10.562;2023-03-18T03:37:55;96040.22;;;10.72;45.32
28000;BME280;15328;50.860;10.562;2023-03-18T03:42:55;96032.69;;;10.81;45.11
28000;BME280;15328;50.860;10.562;2023-03-18T03:47:56;96028.41;;;10.80;44.92
28000;BME280;15328;50.860;10.562;2023-03-18T03:52:58;96031.41;;;10.72;45.55
28000;BME280;15328;50.860;10.562;2023-03-18T03:57:59;96025.13;;;10.55;46.91
28000;BME280;15328;50.860;10.562;2023-03-18T04:03:00;96029.66;;;10.66;47.10
28000;BME280;15328;50.860;10.562;2023-03-18T04:08:00;96029.66;;;10.66;47.00
28000;BME280;15328;50.860;10.562;2023-03-18T04:13:00;96036.59;;;10.67;46.89
28000;BME280;15328;50.860;10.562;2023-03-18T04:18:01;96038.66;;;10.65;46.85
28000;BME280;15328;50.860;10.562;2023-03-18T04:23:05;96045.06;;;10.75;47.06
28000;BME280;15328;50.860;10.562;2023-03-18T04:28:07;96044.59;;;10.78;46.98
28000;BME280;15328;50.860;10.562;2023-03-18T04:33:07;96040.09;;;10.79;47.24
28000;BME280;15328;50.860;10.562;2023-03-18T04:38:09;96038.19;;;10.68;47.37
28000;BME280;15328;50.860;10.562;2023-03-18T04:43:10;96029.88;;;10.64;47.67
28000;BME280;15328;50.860;10.562;2023-03-18T04:48:11;96035.19;;;10.64;48.28
28000;BME280;15328;50.860;10.562;2023-03-18T04:53:11;96027.94;;;10.71;47.20
28000;BME280;15328;50.860;10.562;2023-03-18T04:58:12;96024.88;;;10.56;48.06
28000;BME280;15328;50.860;10.562;2023-03-18T05:03:12;96030.44;;;10.55;48.96
28000;BME280;15328;50.860;10.562;2023-03-18T05:08:12;96031.94;;;10.62;48.49
28000;BME280;15328;50.860;10.562;2023-03-18T05:13:13;96033.56;;;10.63;48.90
28000;BME280;15328;50.860;10.562;2023-03-18T05:18:13;96025.25;;;10.60;49.03
28000;BME280;15328;50.860;10.562;2023-03-18T05:23:15;96027.72;;;10.73;49.08
28000;BME280;15328;50.860;10.562;2023-03-18T05:28:16;96015.81;;;10.75;48.96
28000;BME280;15328;50.860;10.562;2023-03-18T05:33:17;96037.03;;;10.64;49.28
28000;BME280;15328;50.860;10.562;2023-03-18T05:38:18;96041.00;;;10.73;49.01
28000;BME280;15328;50.860;10.562;2023-03-18T05:43:18;96039.66;;;10.94;48.73
28000;BME280;15328;50.860;10.562;2023-03-18T05:48:19;96035.63;;;11.14;48.13
28000;BME280;15328;50.860;10.562;2023-03-18T05:53:20;96036.91;;;11.12;47.52
28000;BME280;15328;50.860;10.562;2023-03-18T05:58:21;96016.66;;;10.99;47.98
28000;BME280;15328;50.860;10.562;2023-03-18T06:03:21;96012.13;;;11.00;48.22
28000;BME280;15328;50.860;10.562;2023-03-18T06:08:23;96018.59;;;10.80;49.72
28000;BME280;15328;50.860;10.562;2023-03-18T06:13:24;96023.78;;;10.75;49.76
28000;BME280;15328;50.860;10.562;2023-03-18T06:18:25;96032.63;;;10.58;50.24
28000;BME280;15328;50.860;10.562;2023-03-18T06:23:25;96039.69;;;10.64;50.02
28000;BME280;15328;50.860;10.562;2023-03-18T06:28:26;96035.94;;;10.95;49.73
28000;BME280;15328;50.860;10.562;2023-03-18T06:33:27;96040.25;;;11.07;49.34
28000;BME280;15328;50.860;10.562;2023-03-18T06:38:29;96042.38;;;11.29;48.45
28000;BME280;15328;50.860;10.562;2023-03-18T06:43:30;96048.13;;;11.14;48.27
28000;BME280;15328;50.860;10.562;2023-03-18T06:48:30;96053.47;;;11.37;48.10
28000;BME280;15328;50.860;10.562;2023-03-18T06:53:32;96066.91;;;11.54;47.80
28000;BME280;15328;50.860;10.562;2023-03-18T06:58:33;96070.84;;;11.63;47.08
28000;BME280;15328;50.860;10.562;2023-03-18T07:03:34;96068.63;;;11.72;47.06
28000;BME280;15328;50.860;10.562;2023-03-18T07:08:34;96062.75;;;11.82;46.69
28000;BME280;15328;50.860;10.562;2023-03-18T07:13:35;96055.78;;;11.81;45.92
28000;BME280;15328;50.860;10.562;2023-03-18T07:18:35;96059.34;;;11.98;45.86
28000;BME280;15328;50.860;10.562;2023-03-18T07:23:36;96058.19;;;11.94;45.25
28000;BME280;15328;50.860;10.562;2023-03-18T07:28:38;96067.00;;;11.94;45.43
28000;BME280;15328;50.860;10.562;2023-03-18T07:33:38;96070.75;;;11.82;45.83
28000;BME280;15328;50.860;10.562;2023-03-18T07:38:39;96072.09;;;11.72;46.13
28000;BME280;15328;50.860;10.562;2023-03-18T07:43:40;96078.56;;;11.76;46.27
28000;BME280;15328;50.860;10.562;2023-03-18T07:48:40;96074.53;;;11.39;45.98
28000;BME280;15328;50.860;10.562;2023-03-18T07:53:41;96087.06;;;11.27;47.42
28000;BME280;15328;50.860;10.562;2023-03-18T07:58:42;96098.03;;;11.30;47.79
28000;BME280;15328;50.860;10.562;2023-03-18T08:03:42;96104.75;;;11.44;47.22
28000;BME280;15328;50.860;10.562;2023-03-18T08:08:43;96116.59;;;11.60;47.00
28000;BME280;15328;50.860;10.562;2023-03-18T08:13:44;96113.56;;;11.68;47.10
28000;BME280;15328;50.860;10.562;2023-03-18T08:18:44;96131.75;;;11.71;46.87
28000;BME280;15328;50.860;10.562;2023-03-18T08:23:45;96135.28;;;11.84;46.83
28000;BME280;15328;50.860;10.562;2023-03-18T08:28:46;96135.16;;;11.79;47.73
28000;BME280;15328;50.860;10.562;2023-03-18T08:33:47;96137.78;;;12.02;47.42
28000;BME280;15328;50.860;10.562;2023-03-18T08:38:48;96135.22;;;11.72;48.41
28000;BME280;15328;50.860;10.562;2023-03-18T08:43:48;96146.22;;;11.75;48.97
28000;BME280;15328;50.860;10.562;2023-03-18T08:48:51;96149.75;;;11.88;48.55
28000;BME280;15328;50.860;10.562;2023-03-18T08:53:53;96140.75;;;12.41;48.14
28000;BME280;15328;50.860;10.562;2023-03-18T08:58:54;96136.81;;;12.72;47.76
28000;BME280;15328;50.860;10.562;2023-03-18T09:03:54;96136.63;;;13.18;47.59
28000;BME280;15328;50.860;10.562;2023-03-18T09:08:57;96140.50;;;13.95;47.33
28000;BME280;15328;50.860;10.562;2023-03-18T09:13:57;96134.56;;;15.24;44.81
28000;BME280;15328;50.860;10.562;2023-03-18T09:18:58;96133.03;;;17.78;39.92
28000;BME280;15328;50.860;10.562;2023-03-18T09:23:58;96150.63;;;19.64;35.89
28000;BME280;15328;50.860;10.562;2023-03-18T09:28:58;96167.25;;;21.67;32.25
28000;BME280;15328;50.860;10.562;2023-03-18T09:33:59;96158.56;;;22.63;29.29
28000;BME280;15328;50.860;10.562;2023-03-18T09:38:59;96157.81;;;23.26;29.03
28000;BME280;15328;50.860;10.562;2023-03-18T09:44:12;96165.66;;;23.27;28.67
28000;BME280;15328;50.860;10.562;2023-03-18T09:55:02;96165.59;;;22.64;29.89
28000;BME280;15328;50.860;10.562;2023-03-18T10:00:15;96168.81;;;22.06;30.40
28000;BME280;15328;50.860;10.562;2023-03-18T10:05:28;96181.19;;;21.93;30.50
28000;BME280;15328;50.860;10.562;2023-03-18T10:10:36;96181.41;;;21.97;30.79
28000;BME280;15328;50.860;10.562;2023-03-18T10:15:44;96175.53;;;22.08;31.17
28000;BME280;15328;50.860;10.562;2023-03-18T10:38:03;96180.66;;;22.10;30.44
28000;BME280;15328;50.860;10.562;2023-03-18T10:43:15;96187.16;;;22.09;30.72
28000;BME280;15328;50.860;10.562;2023-03-18T10:48:32;96189.03;;;22.41;30.14
28000;BME280;15328;50.860;10.562;2023-03-18T10:53:57;96179.75;;;22.61;30.32
28000;BME280;15328;50.860;10.562;2023-03-18T10:58:59;96187.53;;;22.81;29.78
28000;BME280;15328;50.860;10.562;2023-03-18T11:04:04;96186.78;;;23.30;29.78
28000;BME280;15328;50.860;10.562;2023-03-18T11:09:10;96177.84;;;23.66;28.99
28000;BME280;15328;50.860;10.562;2023-03-18T11:19:38;96185.03;;;24.29;27.18
28000;BME280;15328;50.860;10.562;2023-03-18T11:24:39;96188.03;;;23.47;26.24
28000;BME280;15328;50.860;10.562;2023-03-18T11:29:54;96191.78;;;23.37;26.68
28000;BME280;15328;50.860;10.562;2023-03-18T11:35:06;96170.53;;;23.89;26.37
28000;BME280;15328;50.860;10.562;2023-03-18T11:50:36;96174.41;;;23.24;26.26
28000;BME280;15328;50.860;10.562;2023-03-18T12:06:27;96161.47;;;22.52;28.13
28000;BME280;15328;50.860;10.562;2023-03-18T12:11:48;96147.88;;;23.21;27.75
28000;BME280;15328;50.860;10.562;2023-03-18T12:16:56;96148.63;;;23.85;26.45
28000;BME280;15328;50.860;10.562;2023-03-18T12:27:22;96158.50;;;24.34;25.62
28000;BME280;15328;50.860;10.562;2023-03-18T12:48:48;96149.13;;;24.41;26.09
28000;BME280;15328;50.860;10.562;2023-03-18T12:53:53;96145.03;;;23.76;26.94
28000;BME280;15328;50.860;10.562;2023-03-18T12:59:04;96148.88;;;23.25;27.69
28000;BME280;15328;50.860;10.562;2023-03-18T13:04:21;96144.69;;;22.64;27.99
28000;BME280;15328;50.860;10.562;2023-03-18T13:09:45;96142.47;;;22.25;29.56
28000;BME280;15328;50.860;10.562;2023-03-18T13:14:55;96151.03;;;21.67;30.08
28000;BME280;15328;50.860;10.562;2023-03-18T13:19:59;96151.84;;;21.06;31.55
28000;BME280;15328;50.860;10.562;2023-03-18T13:36:02;96147.88;;;21.60;31.17
28000;BME280;15328;50.860;10.562;2023-03-18T13:46:18;96143.94;;;21.34;31.67
28000;BME280;15328;50.860;10.562;2023-03-18T13:51:54;96137.00;;;21.79;31.20
28000;BME280;15328;50.860;10.562;2023-03-18T14:02:59;96146.94;;;22.48;29.72
28000;BME280;15328;50.860;10.562;2023-03-18T14:07:54;96140.28;;;22.68;29.45
28000;BME280;15328;50.860;10.562;2023-03-18T14:12:54;96128.84;;;22.44;29.24
28000;BME280;15328;50.860;10.562;2023-03-18T14:17:58;96130.75;;;22.30;29.67
28000;BME280;15328;50.860;10.562;2023-03-18T14:23:35;96138.38;;;21.44;31.05
28000;BME280;15328;50.860;10.562;2023-03-18T14:28:45;96144.56;;;20.40;32.51
28000;BME280;15328;50.860;10.562;2023-03-18T14:33:50;96129.47;;;19.81;33.45
28000;BME280;15328;50.860;10.562;2023-03-18T14:39:01;96123.91;;;19.96;33.43
28000;BME280;15328;50.860;10.562;2023-03-18T14:49:41;96109.16;;;19.55;33.96
28000;BME280;15328;50.860;10.562;2023-03-18T14:54:47;96119.22;;;19.39;34.72
28000;BME280;15328;50.860;10.562;2023-03-18T14:59:49;96114.75;;;19.24;34.94
28000;BME280;15328;50.860;10.562;2023-03-18T15:04:58;96110.75;;;19.17;35.30
28000;BME280;15328;50.860;10.562;2023-03-18T15:10:14;96112.38;;;19.18;35.27
28000;BME280;15328;50.860;10.562;2023-03-18T15:15:18;96111.53;;;19.22;35.14
28000;BME280;15328;50.860;10.562;2023-03-18T15:20:20;96116.47;;;19.10;35.42
28000;BME280;15328;50.860;10.562;2023-03-18T15:25:21;96102.28;;;18.94;36.00
28000;BME280;15328;50.860;10.562;2023-03-18T15:30:27;96087.25;;;18.83;36.21
28000;BME280;15328;50.860;10.562;2023-03-18T15:35:28;96095.97;;;18.65;36.29
28000;BME280;15328;50.860;10.562;2023-03-18T15:40:32;96106.47;;;18.56;36.61
28000;BME280;15328;50.860;10.562;2023-03-18T15:45:40;96107.03;;;18.53;36.65
28000;BME280;15328;50.860;10.562;2023-03-18T15:50:51;96106.25;;;18.47;36.37
28000;BME280;15328;50.860;10.562;2023-03-18T15:55:55;96101.97;;;18.41;36.81
28000;BME280;15328;50.860;10.562;2023-03-18T16:00:55;96092.81;;;18.32;37.04
28000;BME280;15328;50.860;10.562;2023-03-18T16:05:57;96097.72;;;18.20;37.34
28000;BME280;15328;50.860;10.562;2023-03-18T16:11:00;96106.66;;;18.00;37.71
28000;BME280;15328;50.860;10.562;2023-03-18T16:16:03;96103.97;;;17.95;37.72
28000;BME280;15328;50.860;10.562;2023-03-18T16:21:03;96108.00;;;17.98;37.95
28000;BME280;15328;50.860;10.562;2023-03-18T16:26:13;96108.03;;;17.82;38.23
28000;BME280;15328;50.860;10.562;2023-03-18T16:31:15;96112.88;;;17.70;38.46
28000;BME280;15328;50.860;10.562;2023-03-18T16:36:24;96115.28;;;17.61;38.38
28000;BME280;15328;50.860;10.562;2023-03-18T16:41:25;96134.34;;;17.45;38.51
28000;BME280;15328;50.860;10.562;2023-03-18T16:46:26;96136.25;;;17.39;38.71
28000;BME280;15328;50.860;10.562;2023-03-18T16:51:26;96149.38;;;17.20;40.22
28000;BME280;15328;50.860;10.562;2023-03-18T16:56:27;96141.28;;;17.00;40.85
28000;BME280;15328;50.860;10.562;2023-03-18T17:01:27;96144.44;;;16.77;41.55
28000;BME280;15328;50.860;10.562;2023-03-18T17:06:28;96144.06;;;16.58;42.08
28000;BME280;15328;50.860;10.562;2023-03-18T17:11:28;96145.59;;;16.38;42.82
28000;BME280;15328;50.860;10.562;2023-03-18T17:16:29;96145.50;;;16.18;43.72
28000;BME280;15328;50.860;10.562;2023-03-18T17:21:31;96148.56;;;15.95;44.80
28000;BME280;15328;50.860;10.562;2023-03-18T17:26:31;96139.78;;;15.67;45.48
28000;BME280;15328;50.860;10.562;2023-03-18T17:31:31;96140.84;;;15.34;46.67
28000;BME280;15328;50.860;10.562;2023-03-18T17:36:33;96147.09;;;15.18;46.77
28000;BME280;15328;50.860;10.562;2023-03-18T17:41:33;96138.84;;;14.98;47.10
28000;BME280;15328;50.860;10.562;2023-03-18T17:46:34;96139.25;;;14.84;47.53
28000;BME280;15328;50.860;10.562;2023-03-18T17:51:34;96143.94;;;14.72;47.80
28000;BME280;15328;50.860;10.562;2023-03-18T17:56:35;96147.31;;;14.63;47.80
28000;BME280;15328;50.860;10.562;2023-03-18T18:01:37;96153.59;;;14.51;47.73
28000;BME280;15328;50.860;10.562;2023-03-18T18:06:37;96155.38;;;14.46;47.39
28000;BME280;15328;50.860;10.562;2023-03-18T18:11:41;96153.56;;;14.30;47.83
28000;BME280;15328;50.860;10.562;2023-03-18T18:16:44;96154.09;;;14.10;47.91
28000;BME280;15328;50.860;10.562;2023-03-18T18:21:47;96156.13;;;14.03;48.10
28000;BME280;15328;50.860;10.562;2023-03-18T18:26:48;96150.88;;;13.91;48.27
28000;BME280;15328;50.860;10.562;2023-03-18T18:31:49;96149.13;;;13.80;48.88
28000;BME280;15328;50.860;10.562;2023-03-18T18:36:51;96167.09;;;13.68;48.34
28000;BME280;15328;50.860;10.562;2023-03-18T18:41:51;96171.88;;;13.49;49.39
28000;BME280;15328;50.860;10.562;2023-03-18T18:46:52;96173.66;;;13.43;49.09
28000;BME280;15328;50.860;10.562;2023-03-18T18:51:54;96183.03;;;13.29;50.02
28000;BME280;15328;50.860;10.562;2023-03-18T18:56:54;96182.13;;;13.23;49.99
28000;BME280;15328;50.860;10.562;2023-03-18T19:01:55;96176.94;;;13.05;50.52
28000;BME280;15328;50.860;10.562;2023-03-18T19:07:04;96180.00;;;12.97;51.07
28000;BME280;15328;50.860;10.562;2023-03-18T19:12:13;96177.34;;;12.97;50.69
28000;BME280;15328;50.860;10.562;2023-03-18T19:17:16;96177.50;;;12.79;51.67
28000;BME280;15328;50.860;10.562;2023-03-18T19:22:19;96171.13;;;12.80;51.02
28000;BME280;15328;50.860;10.562;2023-03-18T19:27:24;96173.28;;;12.66;52.08
28000;BME280;15328;50.860;10.562;2023-03-18T19:32:26;96181.53;;;12.64;51.92
28000;BME280;15328;50.860;10.562;2023-03-18T19:37:29;96173.84;;;12.68;52.17
28000;BME280;15328;50.860;10.562;2023-03-18T19:42:31;96177.31;;;12.68;51.92
28000;BME280;15328;50.860;10.562;2023-03-18T19:47:33;96172.22;;;12.67;52.17
28000;BME280;15328;50.860;10.562;2023-03-18T19:52:33;96168.06;;;12.59;52.54
28000;BME280;15328;50.860;10.562;2023-03-18T19:57:33;96175.47;;;12.69;51.88
28000;BME280;15328;50.860;10.562;2023-03-18T20:02:34;96176.34;;;12.46;53.18
28000;BME280;15328;50.860;10.562;2023-03-18T20:07:34;96170.50;;;12.61;52.48
28000;BME280;15328;50.860;10.562;2023-03-18T20:12:40;96185.91;;;12.71;52.40
28000;BME280;15328;50.860;10.562;2023-03-18T20:17:46;96187.19;;;12.68;52.44
28000;BME280;15328;50.860;10.562;2023-03-18T20:23:00;96186.25;;;12.74;52.40
28000;BME280;15328;50.860;10.562;2023-03-18T20:28:02;96189.38;;;12.71;52.59
28000;BME280;15328;50.860;10.562;2023-03-18T20:33:04;96187.44;;;12.66;52.71
28000;BME280;15328;50.860;10.562;2023-03-18T20:43:27;96185.47;;;12.62;52.84
28000;BME280;15328;50.860;10.562;2023-03-18T20:48:28;96188.72;;;12.64;52.65
28000;BME280;15328;50.860;10.562;2023-03-18T20:53:28;96194.28;;;12.62;52.49
28000;BME280;15328;50.860;10.562;2023-03-18T20:58:28;96175.63;;;12.62;52.47
28000;BME280;15328;50.860;10.562;2023-03-18T21:03:31;96189.41;;;12.59;52.83
28000;BME280;15328;50.860;10.562;2023-03-18T21:08:32;96182.09;;;12.55;52.85
28000;BME280;15328;50.860;10.562;2023-03-18T21:13:37;96185.00;;;12.53;53.20
28000;BME280;15328;50.860;10.562;2023-03-18T21:18:37;96181.88;;;12.56;53.08
28000;BME280;15328;50.860;10.562;2023-03-18T21:23:40;96187.78;;;12.58;52.89
28000;BME280;15328;50.860;10.562;2023-03-18T21:28:41;96171.31;;;12.61;52.76
28000;BME280;15328;50.860;10.562;2023-03-18T21:33:41;96172.38;;;12.60;52.98
28000;BME280;15328;50.860;10.562;2023-03-18T21:38:44;96182.91;;;12.67;52.30
28000;BME280;15328;50.860;10.562;2023-03-18T21:43:47;96174.31;;;12.65;52.71
28000;BME280;15328;50.860;10.562;2023-03-18T21:48:49;96188.97;;;12.62;53.02
28000;BME280;15328;50.860;10.562;2023-03-18T21:53:50;96188.16;;;12.62;53.17
28000;BME280;15328;50.860;10.562;2023-03-18T21:58:51;96184.66;;;12.61;52.95
28000;BME280;15328;50.860;10.562;2023-03-18T22:03:52;96187.69;;;12.53;53.02
28000;BME280;15328;50.860;10.562;2023-03-18T22:08:53;96184.44;;;12.51;52.83
28000;BME280;15328;50.860;10.562;2023-03-18T22:13:55;96186.06;;;12.52;52.93
28000;BME280;15328;50.860;10.562;2023-03-18T22:18:56;96176.56;;;12.45;53.12
28000;BME280;15328;50.860;10.562;2023-03-18T22:23:56;96178.66;;;12.43;52.99
28000;BME280;15328;50.860;10.562;2023-03-18T22:28:59;96181.25;;;12.37;53.06
28000;BME280;15328;50.860;10.562;2023-03-18T22:33:59;96177.53;;;12.27;53.72
28000;BME280;15328;50.860;10.562;2023-03-18T22:38:59;96178.22;;;12.22;53.68
28000;BME280;15328;50.860;10.562;2023-03-18T22:44:00;96174.19;;;12.20;53.66
28000;BME280;15328;50.860;10.562;2023-03-18T22:49:02;96183.56;;;12.22;53.40
28000;BME280;15328;50.860;10.562;2023-03-18T22:54:13;96180.91;;;12.22;53.59
28000;BME280;15328;50.860;10.562;2023-03-18T22:59:16;96187.63;;;12.25;53.14
28000;BME280;15328;50.860;10.562;2023-03-18T23:04:16;96181.38;;;12.19;53.30
28000;BME280;15328;50.860;10.562;2023-03-18T23:09:17;96173.97;;;12.10;53.71
28000;BME280;15328;50.860;10.562;2023-03-18T23:14:17;96184.16;;;12.13;53.61
28000;BME280;15328;50.860;10.562;2023-03-18T23:19:17;96182.53;;;12.12;53.22
28000;BME280;15328;50.860;10.562;2023-03-18T23:24:17;96177.91;;;12.07;53.37
28000;BME280;15328;50.860;10.562;2023-03-18T23:29:18;96189.97;;;12.10;53.02
28000;BME280;15328;50.860;10.562;2023-03-18T23:34:18;96184.63;;;12.10;53.05
28000;BME280;15328;50.860;10.562;2023-03-18T23:39:18;96185.22;;;12.12;52.83
28000;BME280;15328;50.860;10.562;2023-03-18T23:44:19;96187.28;;;11.98;52.97
28000;BME280;15328;50.860;10.562;2023-03-18T23:49:20;96191.34;;;11.89;53.38
28000;BME280;15328;50.860;10.562;2023-03-18T23:54:20;96186.78;;;11.77;53.86
28000;BME280;15328;50.860;10.562;2023-03-18T23:59:21;96181.28;;;11.79;53.81
